createdAt,value
2023-05-10T00:00:10.163Z,15.15
2023-05-10T00:02:43.231Z,14.73
2023-05-10T00:05:13.404Z,15.68
2023-05-10T00:07:46.948Z,16.58
2023-05-10T00:10:17.367Z,14.52
2023-05-10T00:12:48.442Z,13.60
2023-05-10T00:15:18.864Z,15.45
2023-05-10T00:17:49.451Z,14.77
2023-05-10T00:20:20.407Z,14.95
2023-05-10T00:22:50.904Z,15.77
2023-05-10T00:25:22.822Z,16.63
2023-05-10T00:27:53.571Z,13.73
2023-05-10T00:30:26.530Z,13.32
2023-05-10T00:32:56.935Z,13.18
2023-05-10T00:35:28.186Z,15.90
2023-05-10T00:37:58.578Z,14.50
2023-05-10T00:40:28.925Z,13.10
2023-05-10T00:43:03.750Z,11.35
2023-05-10T00:45:34.330Z,11.82
2023-05-10T00:48:05.876Z,11.88
2023-05-10T00:50:37.477Z,10.93
2023-05-10T00:53:08.459Z,10.38
2023-05-10T00:55:39.667Z,10.52
2023-05-10T00:58:10.983Z,13.45
2023-05-10T01:00:45.672Z,11.18
2023-05-10T01:03:17.026Z,8.07
2023-05-10T01:05:47.441Z,11.25
2023-05-10T01:08:19.254Z,9.70
2023-05-10T01:10:51.363Z,10.55
2023-05-10T01:13:26.206Z,11.00
2023-05-10T01:15:57.881Z,9.60
2023-05-10T01:18:28.972Z,7.03
2023-05-10T01:21:05.996Z,7.47
2023-05-10T01:23:59.997Z,9.38
2023-05-10T01:26:48.468Z,8.50
2023-05-10T01:29:33.666Z,9.77
2023-05-10T01:32:04.458Z,8.50
2023-05-10T01:34:39.905Z,8.38
2023-05-10T01:37:22.934Z,9.95
2023-05-10T01:40:00.382Z,10.63
2023-05-10T01:42:39.557Z,9.75
2023-05-10T01:45:28.501Z,9.05
2023-05-10T01:48:09.503Z,7.63
2023-05-10T01:50:42.767Z,12.07
2023-05-10T01:53:14.487Z,9.20
2023-05-10T01:55:48.184Z,7.55
2023-05-10T01:58:21.372Z,6.80
2023-05-10T02:00:54.087Z,7.10
2023-05-10T02:03:26.702Z,13.07
2023-05-10T02:05:57.985Z,6.82
2023-05-10T02:08:28.964Z,6.75
2023-05-10T02:11:01.079Z,7.53
2023-05-10T02:13:34.783Z,7.70
2023-05-10T02:16:07.273Z,7.20
2023-05-10T02:18:39.034Z,24.70
2023-05-10T02:21:11.061Z,23.63
2023-05-10T02:23:42.801Z,27.42
2023-05-10T02:26:14.240Z,28.92
2023-05-10T02:28:45.976Z,27.83
2023-05-10T02:31:19.792Z,26.13
2023-05-10T02:33:51.292Z,28.17
2023-05-10T02:36:26.715Z,34.30
2023-05-10T02:38:57.627Z,32.42
2023-05-10T02:41:29.169Z,32.13
2023-05-10T02:44:02.729Z,34.53
2023-05-10T02:46:33.082Z,34.85
2023-05-10T02:49:04.043Z,35.13
2023-05-10T02:51:37.741Z,28.33
2023-05-10T02:54:15.750Z,29.40
2023-05-10T02:56:52.057Z,31.85
2023-05-10T02:59:22.377Z,35.38
2023-05-10T03:01:53.590Z,36.08
2023-05-10T03:04:24.667Z,38.83
2023-05-10T03:06:58.088Z,37.70
2023-05-10T03:09:29.036Z,42.30
2023-05-10T03:12:16.067Z,45.50
2023-05-10T03:15:04.975Z,40.55
2023-05-10T03:17:58.269Z,42.13
2023-05-10T03:20:32.063Z,42.08
2023-05-10T03:23:09.530Z,44.15
2023-05-10T03:25:42.049Z,47.17
2023-05-10T03:28:12.555Z,45.17
2023-05-10T03:30:44.105Z,45.45
2023-05-10T03:33:16.712Z,47.78
2023-05-10T03:35:51.990Z,47.33
2023-05-10T03:38:22.557Z,49.72
2023-05-10T03:40:53.552Z,47.63
2023-05-10T03:43:24.369Z,51.08
2023-05-10T03:45:58.421Z,52.50
2023-05-10T03:48:29.669Z,52.03
2023-05-10T03:50:59.664Z,56.13
2023-05-10T03:53:30.714Z,60.83
2023-05-10T03:56:01.141Z,56.33
2023-05-10T03:58:32.132Z,44.13
2023-05-10T04:01:02.374Z,44.17
2023-05-10T04:03:32.707Z,49.45
2023-05-10T04:06:06.883Z,43.95
2023-05-10T04:08:38.107Z,46.85
2023-05-10T04:11:09.639Z,46.42
2023-05-10T04:13:40.383Z,42.50
2023-05-10T04:16:10.619Z,37.47
2023-05-10T04:18:42.114Z,32.38
2023-05-10T04:21:15.680Z,26.50
2023-05-10T04:23:47.089Z,27.48
2023-05-10T04:26:17.483Z,19.77
2023-05-10T04:28:48.835Z,15.35
2023-05-10T04:31:20.789Z,14.07
2023-05-10T04:33:52.108Z,10.05
2023-05-10T04:36:22.283Z,8.23
2023-05-10T04:38:53.113Z,8.80
2023-05-10T04:41:24.136Z,7.15
2023-05-10T04:43:55.111Z,6.38
2023-05-10T04:46:25.684Z,5.10
2023-05-10T04:48:56.299Z,5.30
2023-05-10T04:51:27.655Z,5.90
2023-05-10T04:54:05.974Z,7.28
2023-05-10T04:56:37.289Z,6.70
2023-05-10T04:59:07.576Z,8.18
2023-05-10T05:01:38.241Z,8.25
2023-05-10T05:04:09.200Z,7.05
2023-05-10T05:06:39.756Z,6.50
2023-05-10T05:09:11.177Z,8.40
2023-05-10T05:11:42.561Z,8.98
2023-05-10T05:14:13.964Z,8.32
2023-05-10T05:16:44.189Z,7.25
2023-05-10T05:19:14.998Z,6.38
2023-05-10T05:21:45.452Z,6.93
2023-05-10T05:24:16.015Z,5.13
2023-05-10T05:26:47.137Z,4.78
2023-05-10T05:29:18.320Z,6.20
2023-05-10T05:31:48.295Z,5.30
2023-05-10T05:34:22.761Z,5.85
2023-05-10T05:36:53.198Z,5.38
2023-05-10T05:39:26.208Z,4.95
2023-05-10T05:41:57.274Z,5.25
2023-05-10T05:44:28.842Z,4.95
2023-05-10T05:47:01.892Z,5.00
2023-05-10T05:49:32.612Z,4.07
2023-05-10T05:52:06.851Z,5.00
2023-05-10T05:54:37.686Z,4.43
2023-05-10T05:57:08.669Z,3.63
2023-05-10T05:59:44.173Z,3.70
2023-05-10T06:02:14.804Z,3.58
2023-05-10T06:04:45.759Z,3.80
2023-05-10T06:07:16.293Z,3.97
2023-05-10T06:09:47.219Z,4.15
2023-05-10T06:12:17.774Z,3.95
2023-05-10T06:14:48.287Z,3.90
2023-05-10T06:17:19.332Z,3.65
2023-05-10T06:19:49.735Z,3.28
2023-05-10T06:22:20.386Z,3.60
2023-05-10T06:24:53.647Z,3.60
2023-05-10T06:27:28.769Z,3.78
2023-05-10T06:30:11.868Z,3.50
2023-05-10T06:32:43.798Z,3.20
2023-05-10T06:35:19.311Z,5.40
2023-05-10T06:37:50.762Z,4.18
2023-05-10T06:40:35.159Z,3.38
2023-05-10T06:43:06.761Z,3.15
2023-05-10T06:45:37.581Z,3.13
2023-05-10T06:48:08.318Z,7.28
2023-05-10T06:50:38.552Z,5.53
2023-05-10T06:53:09.803Z,5.45
2023-05-10T06:55:40.253Z,12.23
2023-05-10T06:58:10.793Z,5.90
2023-05-10T07:00:42.796Z,5.93
2023-05-10T07:03:13.953Z,4.00
2023-05-10T07:05:44.518Z,4.38
2023-05-10T07:08:15.836Z,4.72
2023-05-10T07:10:46.723Z,3.95
2023-05-10T07:13:18.010Z,3.33
2023-05-10T07:15:48.709Z,3.55
2023-05-10T07:18:19.317Z,3.83
2023-05-10T07:20:50.141Z,4.50
2023-05-10T07:23:21.519Z,3.88
2023-05-10T07:25:54.385Z,3.13
2023-05-10T07:28:24.837Z,3.80
2023-05-10T07:30:55.563Z,3.50
2023-05-10T07:33:26.431Z,7.20
2023-05-10T07:35:57.840Z,4.45
2023-05-10T07:38:28.310Z,14.65
2023-05-10T07:40:58.351Z,6.43
2023-05-10T07:43:28.791Z,4.53
2023-05-10T07:46:01.774Z,3.45
2023-05-10T07:48:32.219Z,4.13
2023-05-10T07:51:03.522Z,3.72
2023-05-10T07:53:34.809Z,4.35
2023-05-10T07:56:22.590Z,6.32
2023-05-10T07:58:53.351Z,7.05
2023-05-10T08:01:24.635Z,5.60
2023-05-10T08:03:55.652Z,5.00
2023-05-10T08:06:26.113Z,4.78
2023-05-10T08:08:57.795Z,6.28
2023-05-10T08:11:29.814Z,3.92
2023-05-10T08:14:01.867Z,4.45
2023-05-10T08:16:32.080Z,4.28
2023-05-10T08:19:02.965Z,6.55
2023-05-10T08:21:33.393Z,7.95
2023-05-10T08:24:08.162Z,6.80
2023-05-10T08:26:39.343Z,6.85
2023-05-10T08:29:10.149Z,6.10
2023-05-10T08:31:40.883Z,5.45
2023-05-10T08:34:11.826Z,5.63
2023-05-10T08:36:42.884Z,6.47
2023-05-10T08:39:23.002Z,5.78
2023-05-10T08:42:01.222Z,5.05
2023-05-10T08:44:34.901Z,5.93
2023-05-10T08:47:08.506Z,4.70
2023-05-10T08:49:39.539Z,4.50
2023-05-10T08:52:10.982Z,4.72
2023-05-10T08:54:41.663Z,5.47
2023-05-10T08:57:12.700Z,5.63
2023-05-10T08:59:46.722Z,6.95
2023-05-10T09:02:18.892Z,7.05
2023-05-10T09:04:51.164Z,9.02
2023-05-10T09:07:22.353Z,7.88
2023-05-10T09:09:53.669Z,6.00
2023-05-10T09:12:24.295Z,6.35
2023-05-10T09:14:55.453Z,7.28
2023-05-10T09:17:27.202Z,5.80
2023-05-10T09:20:01.883Z,7.07
2023-05-10T09:22:33.252Z,6.82
2023-05-10T09:25:07.846Z,7.45
2023-05-10T09:27:39.032Z,6.72
2023-05-10T09:30:10.587Z,7.30
2023-05-10T09:32:44.429Z,9.80
2023-05-10T09:35:21.484Z,9.98
2023-05-10T09:37:56.018Z,8.60
2023-05-10T09:40:28.263Z,6.43
2023-05-10T09:43:00.200Z,7.88
2023-05-10T09:45:31.604Z,10.88
2023-05-10T09:48:04.066Z,11.05
2023-05-10T09:50:35.107Z,9.30
2023-05-10T09:53:06.354Z,9.90
2023-05-10T09:55:43.216Z,11.18
2023-05-10T09:58:14.747Z,11.43
2023-05-10T10:00:45.722Z,36.25
2023-05-10T10:03:19.559Z,18.77
2023-05-10T10:05:50.772Z,18.55
2023-05-10T10:08:24.912Z,14.63
2023-05-10T10:10:55.611Z,11.95
2023-05-10T10:13:25.992Z,13.50
2023-05-10T10:15:57.065Z,13.10
2023-05-10T10:18:29.120Z,14.63
2023-05-10T10:21:00.357Z,18.67
2023-05-10T10:23:32.379Z,12.27
2023-05-10T10:26:04.919Z,12.35
2023-05-10T10:28:55.318Z,14.20
2023-05-10T10:31:44.499Z,14.50
2023-05-10T10:34:34.082Z,10.65
2023-05-10T10:37:09.506Z,11.25
2023-05-10T10:39:39.889Z,15.23
2023-05-10T10:42:11.236Z,11.60
2023-05-10T10:44:46.625Z,10.95
2023-05-10T10:47:32.148Z,11.18
2023-05-10T10:50:04.023Z,11.43
2023-05-10T10:52:36.017Z,10.00
2023-05-10T10:55:11.472Z,11.23
2023-05-10T10:57:46.484Z,11.05
2023-05-10T11:00:22.522Z,11.43
2023-05-10T11:02:59.096Z,20.02
2023-05-10T11:05:47.899Z,16.83
2023-05-10T11:08:24.825Z,30.60
2023-05-10T11:11:05.663Z,19.25
2023-05-10T11:13:56.853Z,16.27
2023-05-10T11:16:27.534Z,29.60
2023-05-10T11:19:03.848Z,23.17
2023-05-10T11:21:36.451Z,28.55
2023-05-10T11:24:14.853Z,24.50
2023-05-10T11:26:45.429Z,20.15
2023-05-10T11:29:16.107Z,22.58
2023-05-10T11:31:47.410Z,19.52
2023-05-10T11:34:36.907Z,19.85
2023-05-10T11:37:07.739Z,18.80
2023-05-10T11:39:38.750Z,18.55
2023-05-10T11:42:11.512Z,18.40
2023-05-10T11:44:49.519Z,15.95
2023-05-10T11:47:20.112Z,15.25
2023-05-10T11:49:50.727Z,17.48
2023-05-10T11:52:22.038Z,18.77
2023-05-10T11:54:56.367Z,17.90
2023-05-10T11:57:31.525Z,23.38
2023-05-10T12:00:02.846Z,22.48
2023-05-10T12:02:37.461Z,16.80
2023-05-10T12:05:09.337Z,16.58
2023-05-10T12:07:40.106Z,20.25
2023-05-10T12:10:17.286Z,17.25
2023-05-10T12:12:49.612Z,21.05
2023-05-10T12:15:22.023Z,20.13
2023-05-10T12:17:53.414Z,16.70
2023-05-10T12:20:25.192Z,14.80
2023-05-10T12:22:59.733Z,16.25
2023-05-10T12:25:35.784Z,18.10
2023-05-10T12:28:07.333Z,20.08
2023-05-10T12:30:41.619Z,19.92
2023-05-10T12:33:20.098Z,21.23
2023-05-10T12:35:52.493Z,21.50
2023-05-10T12:38:27.621Z,20.50
2023-05-10T12:40:58.566Z,21.02
2023-05-10T12:43:29.090Z,22.75
2023-05-10T12:46:00.636Z,25.58
2023-05-10T12:48:33.342Z,28.80
2023-05-10T12:51:05.272Z,29.50
2023-05-10T12:53:36.576Z,30.65
2023-05-10T12:56:07.731Z,31.33
2023-05-10T12:58:38.459Z,32.00
2023-05-10T13:01:09.178Z,29.52
2023-05-10T13:03:40.742Z,32.92
2023-05-10T13:06:11.195Z,30.42
2023-05-10T13:08:42.676Z,31.88
2023-05-10T13:11:14.142Z,47.65
2023-05-10T13:13:44.732Z,62.17
2023-05-10T13:16:15.156Z,49.63
2023-05-10T13:18:45.720Z,46.72
2023-05-10T13:21:16.159Z,37.15
2023-05-10T13:23:46.696Z,38.88
2023-05-10T13:26:17.069Z,37.40
2023-05-10T13:28:48.074Z,38.00
2023-05-10T13:31:18.150Z,37.03
2023-05-10T13:33:50.578Z,35.83
2023-05-10T13:36:26.415Z,34.97
2023-05-10T13:38:59.172Z,34.63
2023-05-10T13:41:30.124Z,33.97
2023-05-10T13:44:00.168Z,34.63
2023-05-10T13:46:34.264Z,34.78
2023-05-10T13:49:05.209Z,35.97
2023-05-10T13:51:37.824Z,37.03
2023-05-10T13:54:10.375Z,40.72
2023-05-10T13:56:46.064Z,40.47
2023-05-10T13:59:17.670Z,45.70
2023-05-10T14:01:47.756Z,39.67
2023-05-10T14:04:18.637Z,41.10
2023-05-10T14:06:50.360Z,39.83
2023-05-10T14:09:21.648Z,41.05
2023-05-10T14:11:52.201Z,38.53
2023-05-10T14:14:23.175Z,36.60
2023-05-10T14:16:55.160Z,36.75
2023-05-10T14:19:28.992Z,35.58
2023-05-10T14:21:59.647Z,37.22
2023-05-10T14:24:30.652Z,35.08
2023-05-10T14:27:04.268Z,35.15
2023-05-10T14:29:35.275Z,35.55
2023-05-10T14:32:06.341Z,35.75
2023-05-10T14:34:37.250Z,35.67
2023-05-10T14:37:07.977Z,35.67
2023-05-10T14:39:38.701Z,37.03
2023-05-10T14:42:08.928Z,38.28
2023-05-10T14:44:39.736Z,38.38
2023-05-10T14:47:12.052Z,37.45
2023-05-10T14:49:43.234Z,40.30
2023-05-10T14:52:14.521Z,39.45
2023-05-10T14:54:45.825Z,39.10
2023-05-10T14:57:17.340Z,39.92
2023-05-10T14:59:48.023Z,41.60
2023-05-10T15:02:18.787Z,42.05
2023-05-10T15:04:53.366Z,43.17
2023-05-10T15:07:24.757Z,43.38
2023-05-10T15:09:56.416Z,43.92
2023-05-10T15:12:27.157Z,46.63
2023-05-10T15:14:58.278Z,46.65
2023-05-10T15:17:29.289Z,50.53
2023-05-10T15:19:59.856Z,50.10
2023-05-10T15:22:31.850Z,50.55
2023-05-10T15:25:02.642Z,51.35
2023-05-10T15:27:33.316Z,53.78
2023-05-10T15:30:07.406Z,52.60
2023-05-10T15:32:37.831Z,52.72
2023-05-10T15:35:10.945Z,55.65
2023-05-10T15:37:41.516Z,54.65
2023-05-10T15:40:12.464Z,51.42
2023-05-10T15:42:43.796Z,52.17
2023-05-10T15:45:14.216Z,49.70
2023-05-10T15:47:44.265Z,48.30
2023-05-10T15:50:15.292Z,48.92
2023-05-10T15:52:45.288Z,50.25
2023-05-10T15:55:17.296Z,48.97
2023-05-10T15:57:47.781Z,48.33
2023-05-10T16:00:22.612Z,49.20
2023-05-10T16:02:54.970Z,48.47
2023-05-10T16:05:26.035Z,50.38
2023-05-10T16:07:56.570Z,50.15
2023-05-10T16:10:27.347Z,49.45
2023-05-10T16:12:57.815Z,51.17
2023-05-10T16:15:28.780Z,49.10
2023-05-10T16:17:59.672Z,49.78
2023-05-10T16:20:33.839Z,49.88
2023-05-10T16:23:06.286Z,51.75
2023-05-10T16:25:36.965Z,51.42
2023-05-10T16:28:07.335Z,50.88
2023-05-10T16:33:40.205Z,51.22
2023-05-10T16:36:11.386Z,50.05
2023-05-10T16:38:42.906Z,48.47
2023-05-10T16:41:13.802Z,49.22
2023-05-10T16:43:44.849Z,49.60
2023-05-10T16:46:15.248Z,48.45
2023-05-10T16:48:46.002Z,47.78
2023-05-10T16:51:16.379Z,48.42
2023-05-10T16:53:46.940Z,47.58
2023-05-10T16:56:19.608Z,46.97
2023-05-10T16:58:53.419Z,46.38
2023-05-10T17:01:26.533Z,48.08
2023-05-10T17:03:58.146Z,47.40
2023-05-10T17:06:28.647Z,50.13
2023-05-10T17:08:58.877Z,48.42
2023-05-10T17:11:31.117Z,48.08
2023-05-10T17:14:02.613Z,48.47
2023-05-10T17:16:32.683Z,49.58
2023-05-10T17:19:04.126Z,48.15
2023-05-10T17:21:34.889Z,50.97
2023-05-10T17:24:07.109Z,49.40
2023-05-10T17:26:37.924Z,47.58
2023-05-10T17:29:10.393Z,46.75
2023-05-10T17:31:40.398Z,48.30
2023-05-10T17:34:10.415Z,49.10
2023-05-10T17:36:41.356Z,46.63
2023-05-10T17:39:12.341Z,46.35
2023-05-10T17:41:42.439Z,44.47
2023-05-10T17:44:15.897Z,46.25
2023-05-10T17:46:49.478Z,44.47
2023-05-10T17:49:19.927Z,46.88
2023-05-10T17:51:50.809Z,49.35
2023-05-10T17:54:21.397Z,46.83
2023-05-10T17:56:52.404Z,46.15
2023-05-10T17:59:22.873Z,46.50
2023-05-10T18:01:53.892Z,45.17
2023-05-10T18:04:27.505Z,43.22
2023-05-10T18:07:02.412Z,41.50
2023-05-10T18:09:33.105Z,42.30
2023-05-10T18:12:04.587Z,42.42
2023-05-10T18:14:40.616Z,43.13
2023-05-10T18:17:11.413Z,42.95
2023-05-10T18:19:42.192Z,46.13
2023-05-10T18:22:12.941Z,44.28
2023-05-10T18:24:43.513Z,45.33
2023-05-10T18:27:13.949Z,46.72
2023-05-10T18:29:43.900Z,45.83
2023-05-10T18:32:14.460Z,47.15
2023-05-10T18:34:45.629Z,52.15
2023-05-10T18:37:16.958Z,48.35
2023-05-10T18:39:47.479Z,53.40
2023-05-10T18:42:18.375Z,50.22
2023-05-10T18:44:48.486Z,48.55
2023-05-10T18:47:18.949Z,49.15
2023-05-10T18:49:48.982Z,50.05
2023-05-10T18:52:20.236Z,48.45
2023-05-10T18:54:51.565Z,47.17
2023-05-10T18:57:23.161Z,47.60
2023-05-10T18:59:54.016Z,48.22
2023-05-10T19:02:26.286Z,49.35
2023-05-10T19:04:56.569Z,52.15
2023-05-10T19:07:26.763Z,52.53
2023-05-10T19:09:57.452Z,51.17
2023-05-10T19:12:27.992Z,53.67
2023-05-10T19:14:58.960Z,49.25
2023-05-10T19:17:31.420Z,49.88
2023-05-10T19:20:04.273Z,50.83
2023-05-10T19:22:47.107Z,52.65
2023-05-10T19:25:30.424Z,51.65
2023-05-10T19:28:01.238Z,53.65
2023-05-10T19:30:33.018Z,55.90
2023-05-10T19:33:07.184Z,54.38
2023-05-10T19:35:38.184Z,52.90
2023-05-10T19:38:09.014Z,56.25
2023-05-10T19:40:39.482Z,55.72
2023-05-10T19:43:10.196Z,54.80
2023-05-10T19:45:40.434Z,53.50
2023-05-10T19:48:11.153Z,50.92
2023-05-10T19:50:41.635Z,49.85
2023-05-10T19:53:12.513Z,50.83
2023-05-10T19:55:43.011Z,49.85
2023-05-10T19:58:13.550Z,53.35
2023-05-10T20:00:44.062Z,49.90
2023-05-10T20:03:35.663Z,51.17
2023-05-10T20:06:06.097Z,51.65
2023-05-10T20:08:36.514Z,50.58
2023-05-10T20:11:07.568Z,51.03
2023-05-10T20:13:38.000Z,52.05
2023-05-10T20:16:08.547Z,51.95
2023-05-10T20:18:39.587Z,52.97
2023-05-10T20:21:09.557Z,53.17
2023-05-10T20:23:39.816Z,56.25
2023-05-10T20:26:10.996Z,55.78
2023-05-10T20:28:41.706Z,54.40
2023-05-10T20:31:13.149Z,55.00
2023-05-10T20:33:44.128Z,56.60
2023-05-10T20:36:15.081Z,55.92
2023-05-10T20:38:45.598Z,56.33
2023-05-10T20:41:16.075Z,56.35
2023-05-10T20:43:46.100Z,54.35
2023-05-10T20:46:18.085Z,55.40
2023-05-10T20:48:48.593Z,57.03
2023-05-10T20:51:19.732Z,55.55
2023-05-10T20:53:49.847Z,56.22
2023-05-10T20:56:21.061Z,56.85
2023-05-10T20:58:52.368Z,54.92
2023-05-10T21:01:23.139Z,54.55
2023-05-10T21:03:54.091Z,55.88
2023-05-10T21:06:24.558Z,54.75
2023-05-10T21:08:54.841Z,53.78
2023-05-10T21:11:26.042Z,57.00
2023-05-10T21:13:56.883Z,54.63
2023-05-10T21:16:27.165Z,55.75
2023-05-10T21:18:57.138Z,53.35
2023-05-10T21:21:27.605Z,55.63
2023-05-10T21:23:58.653Z,52.17
2023-05-10T21:26:29.841Z,52.42
2023-05-10T21:29:00.649Z,53.90
2023-05-10T21:31:32.199Z,52.53
2023-05-10T21:34:02.599Z,49.80
2023-05-10T21:36:33.301Z,45.75
2023-05-10T21:39:04.630Z,50.35
2023-05-10T21:41:35.692Z,49.58
2023-05-10T21:44:05.893Z,50.30
2023-05-10T21:46:36.745Z,52.90
2023-05-10T21:49:06.905Z,53.53
2023-05-10T21:51:37.655Z,52.85
2023-05-10T21:54:08.898Z,53.58
2023-05-10T21:56:40.045Z,50.20
2023-05-10T21:59:10.661Z,51.30
2023-05-10T22:01:40.848Z,49.60
2023-05-10T22:04:27.621Z,49.90
2023-05-10T22:06:58.113Z,50.00
2023-05-10T22:09:28.674Z,49.72
2023-05-10T22:12:01.978Z,48.95
2023-05-10T22:14:33.135Z,47.13
2023-05-10T22:17:06.039Z,45.30
2023-05-10T22:19:36.832Z,47.00
2023-05-10T22:22:11.174Z,44.67
2023-05-10T22:24:42.246Z,44.08
2023-05-10T22:27:12.692Z,44.75
2023-05-10T22:29:43.540Z,42.92
2023-05-10T22:32:14.689Z,42.35
2023-05-10T22:34:44.957Z,43.25
2023-05-10T22:37:19.188Z,41.38
2023-05-10T22:39:51.100Z,42.40
2023-05-10T22:42:21.175Z,43.97
2023-05-10T22:44:52.719Z,42.95
2023-05-10T22:47:23.265Z,43.20
2023-05-10T22:49:54.052Z,42.65
2023-05-10T22:52:24.729Z,41.00
2023-05-10T22:54:56.150Z,40.13
2023-05-10T22:57:26.200Z,38.42
2023-05-10T22:59:58.543Z,36.30
2023-05-10T23:02:28.736Z,34.50
2023-05-10T23:04:59.324Z,35.00
2023-05-10T23:07:30.677Z,34.28
2023-05-10T23:10:01.018Z,33.67
2023-05-10T23:12:32.729Z,31.05
2023-05-10T23:15:04.120Z,29.70
2023-05-10T23:17:34.195Z,28.38
2023-05-10T23:20:05.218Z,30.20
2023-05-10T23:22:36.231Z,28.88
2023-05-10T23:25:06.743Z,27.17
2023-05-10T23:27:36.737Z,28.65
2023-05-10T23:30:08.339Z,28.50
2023-05-10T23:32:39.801Z,27.67
2023-05-10T23:35:11.262Z,27.50
2023-05-10T23:37:43.777Z,26.05
2023-05-10T23:40:15.322Z,26.67
2023-05-10T23:42:46.646Z,27.80
2023-05-10T23:45:17.754Z,28.42
2023-05-10T23:47:50.722Z,26.38
2023-05-10T23:50:21.231Z,27.42
2023-05-10T23:52:52.758Z,28.90
2023-05-10T23:55:23.022Z,27.70
2023-05-10T23:57:53.516Z,26.85
